Danbury, Connecticut
Current Conditions -  °F | °C
As of 1:53 PM on Friday 21 Nov 2014 (Local Time) from KDXR Reporting Station
Scattered Clouds Scattered Clouds  
Wind Chill: 25°   Ceiling: Unl
Heat Index: 34°   Visibility: 10mi
Dew Point:   Wind: 12mph
Humidity: 34%   Direction: 310°NW
Pressure: 30.27"   Gusts: 21mph
Location:  41.39°N, 73.45°W
Report Text: KDXR 211853Z 31010G18KT 10SM SCT055 01/M13 A3027 RMK AO2 SLP254 T00111133
Loading
Personal Weather Stations






























Interactive Weather Map New forecast layout! Learn more

10-Day Weather Forecast

Advertisements
Track Severe Weather on mobile